sensor_id;sensor_type;location;lat;lon;timestamp;P1;durP1;ratioP1;P2;durP2;ratioP2
67456;SDS011;54319;52.038;4.640;2022-11-18T00:01:13;3.55;;;2.53;;
67456;SDS011;54319;52.038;4.640;2022-11-18T00:03:41;4.82;;;3.00;;
67456;SDS011;54319;52.038;4.640;2022-11-18T00:06:10;4.05;;;2.72;;
67456;SDS011;54319;52.038;4.640;2022-11-18T00:08:38;3.15;;;2.67;;
67456;SDS011;54319;52.038;4.640;2022-11-18T00:11:06;4.60;;;2.83;;
67456;SDS011;54319;52.038;4.640;2022-11-18T00:13:37;7.43;;;2.65;;
67456;SDS011;54319;52.038;4.640;2022-11-18T00:16:22;4.20;;;2.90;;
67456;SDS011;54319;52.038;4.640;2022-11-18T00:18:50;5.38;;;2.90;;
67456;SDS011;54319;52.038;4.640;2022-11-18T00:21:17;5.57;;;2.67;;
67456;SDS011;54319;52.038;4.640;2022-11-18T00:23:44;4.82;;;2.85;;
67456;SDS011;54319;52.038;4.640;2022-11-18T00:26:12;4.65;;;2.88;;
67456;SDS011;54319;52.038;4.640;2022-11-18T00:28:41;3.80;;;2.67;;
67456;SDS011;54319;52.038;4.640;2022-11-18T00:31:09;3.72;;;2.67;;
67456;SDS011;54319;52.038;4.640;2022-11-18T00:33:38;5.18;;;2.75;;
67456;SDS011;54319;52.038;4.640;2022-11-18T00:36:06;4.65;;;2.53;;
67456;SDS011;54319;52.038;4.640;2022-11-18T00:38:35;4.65;;;2.80;;
67456;SDS011;54319;52.038;4.640;2022-11-18T00:41:03;4.65;;;2.60;;
67456;SDS011;54319;52.038;4.640;2022-11-18T00:43:31;3.78;;;2.75;;
67456;SDS011;54319;52.038;4.640;2022-11-18T00:45:58;5.20;;;3.08;;
67456;SDS011;54319;52.038;4.640;2022-11-18T00:48:25;5.35;;;2.88;;
67456;SDS011;54319;52.038;4.640;2022-11-18T00:50:53;3.33;;;2.83;;
67456;SDS011;54319;52.038;4.640;2022-11-18T00:53:22;5.55;;;2.90;;
67456;SDS011;54319;52.038;4.640;2022-11-18T00:55:50;3.45;;;2.80;;
67456;SDS011;54319;52.038;4.640;2022-11-18T00:58:17;8.67;;;3.17;;
67456;SDS011;54319;52.038;4.640;2022-11-18T01:00:48;6.63;;;3.13;;
67456;SDS011;54319;52.038;4.640;2022-11-18T01:03:17;4.05;;;2.50;;
67456;SDS011;54319;52.038;4.640;2022-11-18T01:05:46;6.53;;;3.30;;
67456;SDS011;54319;52.038;4.640;2022-11-18T01:08:13;5.72;;;3.15;;
67456;SDS011;54319;52.038;4.640;2022-11-18T01:10:41;3.70;;;3.00;;
67456;SDS011;54319;52.038;4.640;2022-11-18T01:13:10;4.67;;;3.13;;
67456;SDS011;54319;52.038;4.640;2022-11-18T01:15:44;3.90;;;2.95;;
67456;SDS011;54319;52.038;4.640;2022-11-18T01:18:12;4.22;;;3.03;;
67456;SDS011;54319;52.038;4.640;2022-11-18T01:20:42;7.55;;;3.78;;
67456;SDS011;54319;52.038;4.640;2022-11-18T01:23:08;4.70;;;3.08;;
67456;SDS011;54319;52.038;4.640;2022-11-18T01:25:36;6.53;;;3.65;;
67456;SDS011;54319;52.038;4.640;2022-11-18T01:28:04;5.03;;;3.33;;
67456;SDS011;54319;52.038;4.640;2022-11-18T01:30:32;6.15;;;3.58;;
67456;SDS011;54319;52.038;4.640;2022-11-18T01:32:59;4.28;;;3.47;;
67456;SDS011;54319;52.038;4.640;2022-11-18T01:35:29;6.72;;;3.83;;
67456;SDS011;54319;52.038;4.640;2022-11-18T01:38:00;7.18;;;3.50;;
67456;SDS011;54319;52.038;4.640;2022-11-18T01:40:28;6.45;;;3.80;;
67456;SDS011;54319;52.038;4.640;2022-11-18T01:42:55;12.00;;;4.20;;
67456;SDS011;54319;52.038;4.640;2022-11-18T01:45:27;5.78;;;4.00;;
67456;SDS011;54319;52.038;4.640;2022-11-18T01:48:00;6.38;;;3.42;;
67456;SDS011;54319;52.038;4.640;2022-11-18T01:50:32;6.65;;;3.40;;
67456;SDS011;54319;52.038;4.640;2022-11-18T01:53:04;6.55;;;3.58;;
67456;SDS011;54319;52.038;4.640;2022-11-18T01:55:34;7.13;;;3.70;;
67456;SDS011;54319;52.038;4.640;2022-11-18T01:58:08;4.78;;;3.72;;
67456;SDS011;54319;52.038;4.640;2022-11-18T02:00:38;6.75;;;3.92;;
67456;SDS011;54319;52.038;4.640;2022-11-18T02:03:07;5.65;;;4.15;;
67456;SDS011;54319;52.038;4.640;2022-11-18T02:05:34;9.73;;;4.47;;
67456;SDS011;54319;52.038;4.640;2022-11-18T02:08:03;6.32;;;4.32;;
67456;SDS011;54319;52.038;4.640;2022-11-18T02:10:32;7.05;;;4.10;;
67456;SDS011;54319;52.038;4.640;2022-11-18T02:12:58;5.83;;;4.10;;
67456;SDS011;54319;52.038;4.640;2022-11-18T02:15:32;10.45;;;4.38;;
67456;SDS011;54319;52.038;4.640;2022-11-18T02:18:13;6.15;;;4.22;;
67456;SDS011;54319;52.038;4.640;2022-11-18T02:20:43;12.30;;;4.68;;
67456;SDS011;54319;52.038;4.640;2022-11-18T02:23:31;6.97;;;4.22;;
67456;SDS011;54319;52.038;4.640;2022-11-18T02:29:43;7.95;;;4.63;;
67456;SDS011;54319;52.038;4.640;2022-11-18T02:32:15;5.85;;;4.53;;
67456;SDS011;54319;52.038;4.640;2022-11-18T02:34:47;6.90;;;4.35;;
67456;SDS011;54319;52.038;4.640;2022-11-18T02:37:20;9.60;;;4.75;;
67456;SDS011;54319;52.038;4.640;2022-11-18T02:39:51;8.48;;;4.50;;
67456;SDS011;54319;52.038;4.640;2022-11-18T02:42:23;6.15;;;4.35;;
67456;SDS011;54319;52.038;4.640;2022-11-18T02:44:55;6.60;;;4.18;;
67456;SDS011;54319;52.038;4.640;2022-11-18T02:47:25;10.10;;;4.47;;
67456;SDS011;54319;52.038;4.640;2022-11-18T02:49:55;7.03;;;4.15;;
67456;SDS011;54319;52.038;4.640;2022-11-18T02:52:26;6.78;;;4.53;;
67456;SDS011;54319;52.038;4.640;2022-11-18T02:54:53;6.60;;;4.40;;
67456;SDS011;54319;52.038;4.640;2022-11-18T02:57:22;6.80;;;4.35;;
67456;SDS011;54319;52.038;4.640;2022-11-18T02:59:51;8.82;;;5.15;;
67456;SDS011;54319;52.038;4.640;2022-11-18T03:02:20;8.20;;;5.07;;
67456;SDS011;54319;52.038;4.640;2022-11-18T03:04:48;5.68;;;4.47;;
67456;SDS011;54319;52.038;4.640;2022-11-18T03:07:21;8.52;;;5.28;;
67456;SDS011;54319;52.038;4.640;2022-11-18T03:09:55;6.57;;;4.50;;
67456;SDS011;54319;52.038;4.640;2022-11-18T03:12:28;8.63;;;5.10;;
67456;SDS011;54319;52.038;4.640;2022-11-18T03:15:04;9.95;;;5.18;;
67456;SDS011;54319;52.038;4.640;2022-11-18T03:17:43;9.18;;;5.82;;
67456;SDS011;54319;52.038;4.640;2022-11-18T03:20:21;10.73;;;5.45;;
67456;SDS011;54319;52.038;4.640;2022-11-18T03:23:04;9.07;;;5.65;;
67456;SDS011;54319;52.038;4.640;2022-11-18T03:25:39;9.02;;;5.90;;
67456;SDS011;54319;52.038;4.640;2022-11-18T03:28:11;13.40;;;6.90;;
67456;SDS011;54319;52.038;4.640;2022-11-18T03:30:44;13.30;;;5.85;;
67456;SDS011;54319;52.038;4.640;2022-11-18T03:33:17;9.82;;;6.18;;
67456;SDS011;54319;52.038;4.640;2022-11-18T03:35:50;13.40;;;7.00;;
67456;SDS011;54319;52.038;4.640;2022-11-18T03:38:22;11.25;;;6.57;;
67456;SDS011;54319;52.038;4.640;2022-11-18T03:40:54;12.38;;;6.55;;
67456;SDS011;54319;52.038;4.640;2022-11-18T03:43:25;11.15;;;6.47;;
67456;SDS011;54319;52.038;4.640;2022-11-18T03:45:58;11.45;;;6.60;;
67456;SDS011;54319;52.038;4.640;2022-11-18T03:48:30;11.77;;;6.43;;
67456;SDS011;54319;52.038;4.640;2022-11-18T03:51:04;8.57;;;6.10;;
67456;SDS011;54319;52.038;4.640;2022-11-18T03:53:35;9.73;;;6.47;;
67456;SDS011;54319;52.038;4.640;2022-11-18T03:56:06;11.70;;;6.18;;
67456;SDS011;54319;52.038;4.640;2022-11-18T03:58:37;12.93;;;6.65;;
67456;SDS011;54319;52.038;4.640;2022-11-18T04:01:10;7.70;;;5.88;;
67456;SDS011;54319;52.038;4.640;2022-11-18T04:03:42;11.60;;;6.43;;
67456;SDS011;54319;52.038;4.640;2022-11-18T04:06:13;11.95;;;6.32;;
67456;SDS011;54319;52.038;4.640;2022-11-18T04:08:45;11.75;;;6.50;;
67456;SDS011;54319;52.038;4.640;2022-11-18T04:11:21;13.50;;;6.65;;
67456;SDS011;54319;52.038;4.640;2022-11-18T04:14:06;12.90;;;7.00;;
67456;SDS011;54319;52.038;4.640;2022-11-18T04:16:38;9.65;;;6.25;;
67456;SDS011;54319;52.038;4.640;2022-11-18T04:19:07;10.32;;;5.88;;
67456;SDS011;54319;52.038;4.640;2022-11-18T04:21:34;11.25;;;6.43;;
67456;SDS011;54319;52.038;4.640;2022-11-18T04:24:01;11.98;;;7.03;;
67456;SDS011;54319;52.038;4.640;2022-11-18T04:28:56;8.88;;;6.05;;
67456;SDS011;54319;52.038;4.640;2022-11-18T04:31:24;10.57;;;6.38;;
67456;SDS011;54319;52.038;4.640;2022-11-18T04:33:51;10.35;;;6.47;;
67456;SDS011;54319;52.038;4.640;2022-11-18T04:36:19;13.88;;;6.40;;
67456;SDS011;54319;52.038;4.640;2022-11-18T04:38:47;10.52;;;6.63;;
67456;SDS011;54319;52.038;4.640;2022-11-18T04:41:14;14.68;;;7.05;;
67456;SDS011;54319;52.038;4.640;2022-11-18T04:43:41;11.93;;;7.38;;
67456;SDS011;54319;52.038;4.640;2022-11-18T04:46:08;12.15;;;6.30;;
67456;SDS011;54319;52.038;4.640;2022-11-18T04:48:34;8.88;;;6.55;;
67456;SDS011;54319;52.038;4.640;2022-11-18T04:51:04;11.77;;;7.15;;
67456;SDS011;54319;52.038;4.640;2022-11-18T04:53:33;11.52;;;6.50;;
67456;SDS011;54319;52.038;4.640;2022-11-18T04:56:03;14.15;;;7.05;;
67456;SDS011;54319;52.038;4.640;2022-11-18T04:58:31;11.70;;;6.45;;
67456;SDS011;54319;52.038;4.640;2022-11-18T05:00:58;9.68;;;6.65;;
67456;SDS011;54319;52.038;4.640;2022-11-18T05:03:25;11.30;;;7.00;;
67456;SDS011;54319;52.038;4.640;2022-11-18T05:05:52;13.30;;;6.97;;
67456;SDS011;54319;52.038;4.640;2022-11-18T05:08:18;12.73;;;6.72;;
67456;SDS011;54319;52.038;4.640;2022-11-18T05:10:48;12.82;;;6.70;;
67456;SDS011;54319;52.038;4.640;2022-11-18T05:13:14;9.10;;;6.28;;
67456;SDS011;54319;52.038;4.640;2022-11-18T05:15:41;11.90;;;7.07;;
67456;SDS011;54319;52.038;4.640;2022-11-18T05:18:09;13.90;;;6.28;;
67456;SDS011;54319;52.038;4.640;2022-11-18T05:20:36;12.23;;;6.53;;
67456;SDS011;54319;52.038;4.640;2022-11-18T05:23:03;10.18;;;6.13;;
67456;SDS011;54319;52.038;4.640;2022-11-18T05:25:32;11.98;;;6.80;;
67456;SDS011;54319;52.038;4.640;2022-11-18T05:28:01;9.45;;;6.63;;
67456;SDS011;54319;52.038;4.640;2022-11-18T05:30:28;12.85;;;6.72;;
67456;SDS011;54319;52.038;4.640;2022-11-18T05:32:57;13.60;;;6.35;;
67456;SDS011;54319;52.038;4.640;2022-11-18T05:37:51;13.48;;;6.32;;
67456;SDS011;54319;52.038;4.640;2022-11-18T05:40:18;14.65;;;6.47;;
67456;SDS011;54319;52.038;4.640;2022-11-18T05:42:51;14.25;;;6.38;;
67456;SDS011;54319;52.038;4.640;2022-11-18T05:45:36;10.05;;;6.28;;
67456;SDS011;54319;52.038;4.640;2022-11-18T05:48:03;12.85;;;6.55;;
67456;SDS011;54319;52.038;4.640;2022-11-18T05:50:35;11.73;;;6.88;;
67456;SDS011;54319;52.038;4.640;2022-11-18T05:53:04;11.95;;;6.68;;
67456;SDS011;54319;52.038;4.640;2022-11-18T05:55:32;10.50;;;6.82;;
67456;SDS011;54319;52.038;4.640;2022-11-18T05:58:04;12.38;;;6.38;;
67456;SDS011;54319;52.038;4.640;2022-11-18T06:00:31;11.87;;;6.37;;
67456;SDS011;54319;52.038;4.640;2022-11-18T06:03:00;13.88;;;6.90;;
67456;SDS011;54319;52.038;4.640;2022-11-18T06:05:29;11.68;;;6.75;;
67456;SDS011;54319;52.038;4.640;2022-11-18T06:07:56;13.52;;;6.28;;
67456;SDS011;54319;52.038;4.640;2022-11-18T06:10:25;12.32;;;6.40;;
67456;SDS011;54319;52.038;4.640;2022-11-18T06:12:57;11.20;;;6.65;;
67456;SDS011;54319;52.038;4.640;2022-11-18T06:15:29;15.18;;;6.60;;
67456;SDS011;54319;52.038;4.640;2022-11-18T06:18:01;11.45;;;6.82;;
67456;SDS011;54319;52.038;4.640;2022-11-18T06:20:30;11.73;;;6.07;;
67456;SDS011;54319;52.038;4.640;2022-11-18T06:23:00;13.05;;;6.35;;
67456;SDS011;54319;52.038;4.640;2022-11-18T06:25:27;13.25;;;6.63;;
67456;SDS011;54319;52.038;4.640;2022-11-18T06:27:55;16.38;;;7.25;;
67456;SDS011;54319;52.038;4.640;2022-11-18T06:30:24;12.15;;;6.85;;
67456;SDS011;54319;52.038;4.640;2022-11-18T06:32:53;15.48;;;6.47;;
67456;SDS011;54319;52.038;4.640;2022-11-18T06:35:24;11.50;;;6.00;;
67456;SDS011;54319;52.038;4.640;2022-11-18T06:37:50;16.20;;;6.88;;
67456;SDS011;54319;52.038;4.640;2022-11-18T06:40:17;12.82;;;6.03;;
67456;SDS011;54319;52.038;4.640;2022-11-18T06:42:44;8.80;;;6.00;;
67456;SDS011;54319;52.038;4.640;2022-11-18T06:45:29;13.40;;;6.45;;
67456;SDS011;54319;52.038;4.640;2022-11-18T06:48:01;10.30;;;6.22;;
67456;SDS011;54319;52.038;4.640;2022-11-18T06:50:39;10.95;;;6.43;;
67456;SDS011;54319;52.038;4.640;2022-11-18T06:53:08;12.45;;;6.63;;
67456;SDS011;54319;52.038;4.640;2022-11-18T06:55:35;14.50;;;6.55;;
67456;SDS011;54319;52.038;4.640;2022-11-18T06:58:02;15.20;;;6.72;;
67456;SDS011;54319;52.038;4.640;2022-11-18T07:02:56;19.10;;;6.32;;
67456;SDS011;54319;52.038;4.640;2022-11-18T07:05:23;19.17;;;7.55;;
67456;SDS011;54319;52.038;4.640;2022-11-18T07:07:51;15.40;;;7.03;;
67456;SDS011;54319;52.038;4.640;2022-11-18T07:10:18;15.20;;;7.15;;
67456;SDS011;54319;52.038;4.640;2022-11-18T07:12:44;16.30;;;6.75;;
67456;SDS011;54319;52.038;4.640;2022-11-18T07:15:12;11.02;;;7.25;;
67456;SDS011;54319;52.038;4.640;2022-11-18T07:17:38;10.73;;;6.55;;
67456;SDS011;54319;52.038;4.640;2022-11-18T07:22:33;10.82;;;6.20;;
67456;SDS011;54319;52.038;4.640;2022-11-18T07:25:01;12.63;;;6.57;;
67456;SDS011;54319;52.038;4.640;2022-11-18T07:27:31;13.60;;;7.03;;
67456;SDS011;54319;52.038;4.640;2022-11-18T07:29:59;13.85;;;6.82;;
67456;SDS011;54319;52.038;4.640;2022-11-18T07:32:26;11.32;;;6.72;;
67456;SDS011;54319;52.038;4.640;2022-11-18T07:34:53;9.40;;;6.13;;
67456;SDS011;54319;52.038;4.640;2022-11-18T07:37:20;8.73;;;6.07;;
67456;SDS011;54319;52.038;4.640;2022-11-18T07:39:56;16.20;;;7.13;;
67456;SDS011;54319;52.038;4.640;2022-11-18T07:44:53;12.98;;;7.15;;
67456;SDS011;54319;52.038;4.640;2022-11-18T07:47:23;12.40;;;6.25;;
67456;SDS011;54319;52.038;4.640;2022-11-18T07:49:50;12.27;;;6.55;;
67456;SDS011;54319;52.038;4.640;2022-11-18T07:52:16;18.17;;;7.63;;
67456;SDS011;54319;52.038;4.640;2022-11-18T07:54:43;14.90;;;7.18;;
67456;SDS011;54319;52.038;4.640;2022-11-18T07:57:10;14.07;;;7.30;;
67456;SDS011;54319;52.038;4.640;2022-11-18T08:02:09;15.18;;;7.45;;
67456;SDS011;54319;52.038;4.640;2022-11-18T08:04:37;14.18;;;7.28;;
67456;SDS011;54319;52.038;4.640;2022-11-18T08:07:03;12.13;;;7.07;;
67456;SDS011;54319;52.038;4.640;2022-11-18T08:09:30;11.90;;;7.07;;
67456;SDS011;54319;52.038;4.640;2022-11-18T08:11:57;9.93;;;5.68;;
67456;SDS011;54319;52.038;4.640;2022-11-18T08:14:25;9.93;;;5.85;;
67456;SDS011;54319;52.038;4.640;2022-11-18T08:16:56;17.42;;;5.88;;
67456;SDS011;54319;52.038;4.640;2022-11-18T08:19:24;12.02;;;5.88;;
67456;SDS011;54319;52.038;4.640;2022-11-18T08:21:52;13.80;;;5.53;;
67456;SDS011;54319;52.038;4.640;2022-11-18T08:24:18;9.32;;;4.72;;
67456;SDS011;54319;52.038;4.640;2022-11-18T08:26:46;11.93;;;4.93;;
67456;SDS011;54319;52.038;4.640;2022-11-18T08:29:12;12.23;;;4.72;;
67456;SDS011;54319;52.038;4.640;2022-11-18T08:31:39;13.55;;;5.22;;
67456;SDS011;54319;52.038;4.640;2022-11-18T08:34:07;9.55;;;4.57;;
67456;SDS011;54319;52.038;4.640;2022-11-18T08:36:35;12.98;;;4.78;;
67456;SDS011;54319;52.038;4.640;2022-11-18T08:39:03;10.88;;;4.40;;
67456;SDS011;54319;52.038;4.640;2022-11-18T08:41:33;16.58;;;4.53;;
67456;SDS011;54319;52.038;4.640;2022-11-18T08:44:02;12.07;;;5.07;;
67456;SDS011;54319;52.038;4.640;2022-11-18T08:46:30;9.00;;;4.28;;
67456;SDS011;54319;52.038;4.640;2022-11-18T08:48:57;10.40;;;4.20;;
67456;SDS011;54319;52.038;4.640;2022-11-18T08:51:25;8.35;;;4.35;;
67456;SDS011;54319;52.038;4.640;2022-11-18T08:53:53;12.95;;;4.32;;
67456;SDS011;54319;52.038;4.640;2022-11-18T08:56:20;10.77;;;4.22;;
67456;SDS011;54319;52.038;4.640;2022-11-18T08:58:48;11.40;;;3.78;;
67456;SDS011;54319;52.038;4.640;2022-11-18T09:01:19;5.70;;;3.67;;
67456;SDS011;54319;52.038;4.640;2022-11-18T09:03:46;10.77;;;3.70;;
67456;SDS011;54319;52.038;4.640;2022-11-18T09:06:14;6.03;;;3.08;;
67456;SDS011;54319;52.038;4.640;2022-11-18T09:08:44;12.70;;;4.28;;
67456;SDS011;54319;52.038;4.640;2022-11-18T09:11:11;10.98;;;3.80;;
67456;SDS011;54319;52.038;4.640;2022-11-18T09:13:40;7.43;;;3.70;;
67456;SDS011;54319;52.038;4.640;2022-11-18T09:16:11;8.32;;;3.45;;
67456;SDS011;54319;52.038;4.640;2022-11-18T09:18:39;7.63;;;3.42;;
67456;SDS011;54319;52.038;4.640;2022-11-18T09:21:07;7.38;;;3.75;;
67456;SDS011;54319;52.038;4.640;2022-11-18T09:26:04;9.70;;;3.92;;
67456;SDS011;54319;52.038;4.640;2022-11-18T09:28:33;6.80;;;3.53;;
67456;SDS011;54319;52.038;4.640;2022-11-18T09:31:02;8.63;;;3.20;;
67456;SDS011;54319;52.038;4.640;2022-11-18T09:33:29;8.13;;;3.80;;
67456;SDS011;54319;52.038;4.640;2022-11-18T09:35:57;9.18;;;3.47;;
67456;SDS011;54319;52.038;4.640;2022-11-18T09:38:23;7.40;;;3.53;;
67456;SDS011;54319;52.038;4.640;2022-11-18T09:41:00;4.93;;;3.30;;
67456;SDS011;54319;52.038;4.640;2022-11-18T09:43:49;6.82;;;3.75;;
67456;SDS011;54319;52.038;4.640;2022-11-18T09:46:28;5.65;;;3.10;;
67456;SDS011;54319;52.038;4.640;2022-11-18T09:49:07;7.30;;;3.40;;
67456;SDS011;54319;52.038;4.640;2022-11-18T09:51:39;8.48;;;3.50;;
67456;SDS011;54319;52.038;4.640;2022-11-18T09:54:08;6.50;;;3.50;;
67456;SDS011;54319;52.038;4.640;2022-11-18T09:56:39;7.13;;;3.42;;
67456;SDS011;54319;52.038;4.640;2022-11-18T09:59:09;9.57;;;2.88;;
67456;SDS011;54319;52.038;4.640;2022-11-18T10:01:40;5.55;;;2.78;;
67456;SDS011;54319;52.038;4.640;2022-11-18T10:04:11;9.95;;;3.47;;
67456;SDS011;54319;52.038;4.640;2022-11-18T10:06:40;11.50;;;3.42;;
67456;SDS011;54319;52.038;4.640;2022-11-18T10:09:14;8.85;;;3.28;;
67456;SDS011;54319;52.038;4.640;2022-11-18T10:11:55;8.65;;;3.63;;
67456;SDS011;54319;52.038;4.640;2022-11-18T10:14:46;4.75;;;2.80;;
67456;SDS011;54319;52.038;4.640;2022-11-18T10:17:27;10.00;;;3.53;;
67456;SDS011;54319;52.038;4.640;2022-11-18T10:20:07;7.95;;;3.55;;
67456;SDS011;54319;52.038;4.640;2022-11-18T10:22:46;9.18;;;3.88;;
67456;SDS011;54319;52.038;4.640;2022-11-18T10:25:17;5.20;;;3.67;;
67456;SDS011;54319;52.038;4.640;2022-11-18T10:27:46;7.90;;;3.65;;
67456;SDS011;54319;52.038;4.640;2022-11-18T10:30:17;9.27;;;4.30;;
67456;SDS011;54319;52.038;4.640;2022-11-18T10:32:54;9.35;;;3.85;;
67456;SDS011;54319;52.038;4.640;2022-11-18T10:35:24;8.13;;;3.50;;
67456;SDS011;54319;52.038;4.640;2022-11-18T10:37:59;6.50;;;3.42;;
67456;SDS011;54319;52.038;4.640;2022-11-18T10:40:29;11.68;;;3.90;;
67456;SDS011;54319;52.038;4.640;2022-11-18T10:43:01;7.35;;;3.60;;
67456;SDS011;54319;52.038;4.640;2022-11-18T10:45:29;10.85;;;3.90;;
67456;SDS011;54319;52.038;4.640;2022-11-18T10:47:58;7.78;;;3.53;;
67456;SDS011;54319;52.038;4.640;2022-11-18T10:50:31;7.80;;;3.22;;
67456;SDS011;54319;52.038;4.640;2022-11-18T10:53:00;6.57;;;3.10;;
67456;SDS011;54319;52.038;4.640;2022-11-18T10:57:57;8.80;;;3.65;;
67456;SDS011;54319;52.038;4.640;2022-11-18T11:00:38;6.60;;;3.65;;
67456;SDS011;54319;52.038;4.640;2022-11-18T11:03:18;8.63;;;3.60;;
67456;SDS011;54319;52.038;4.640;2022-11-18T11:08:48;8.40;;;3.53;;
67456;SDS011;54319;52.038;4.640;2022-11-18T11:11:23;12.60;;;3.83;;
67456;SDS011;54319;52.038;4.640;2022-11-18T11:13:53;10.82;;;4.05;;
67456;SDS011;54319;52.038;4.640;2022-11-18T11:16:27;9.77;;;3.50;;
67456;SDS011;54319;52.038;4.640;2022-11-18T11:18:57;7.35;;;3.33;;
67456;SDS011;54319;52.038;4.640;2022-11-18T11:21:28;10.85;;;3.63;;
67456;SDS011;54319;52.038;4.640;2022-11-18T11:23:55;6.90;;;3.60;;
67456;SDS011;54319;52.038;4.640;2022-11-18T11:26:26;9.40;;;4.00;;
67456;SDS011;54319;52.038;4.640;2022-11-18T11:29:05;12.85;;;4.38;;
67456;SDS011;54319;52.038;4.640;2022-11-18T11:31:42;10.55;;;3.97;;
67456;SDS011;54319;52.038;4.640;2022-11-18T11:34:20;10.70;;;4.07;;
67456;SDS011;54319;52.038;4.640;2022-11-18T11:36:54;10.30;;;3.75;;
67456;SDS011;54319;52.038;4.640;2022-11-18T11:39:38;11.75;;;4.35;;
67456;SDS011;54319;52.038;4.640;2022-11-18T11:42:14;8.88;;;3.55;;
67456;SDS011;54319;52.038;4.640;2022-11-18T11:44:53;11.40;;;4.00;;
67456;SDS011;54319;52.038;4.640;2022-11-18T11:47:34;8.43;;;4.18;;
67456;SDS011;54319;52.038;4.640;2022-11-18T11:50:18;7.35;;;4.00;;
67456;SDS011;54319;52.038;4.640;2022-11-18T11:52:59;7.05;;;3.72;;
67456;SDS011;54319;52.038;4.640;2022-11-18T11:55:44;11.70;;;4.65;;
67456;SDS011;54319;52.038;4.640;2022-11-18T11:58:23;12.02;;;4.43;;
67456;SDS011;54319;52.038;4.640;2022-11-18T12:01:10;9.25;;;4.68;;
67456;SDS011;54319;52.038;4.640;2022-11-18T12:03:46;10.30;;;5.18;;
67456;SDS011;54319;52.038;4.640;2022-11-18T12:06:18;10.43;;;4.68;;
67456;SDS011;54319;52.038;4.640;2022-11-18T12:08:47;12.87;;;4.97;;
67456;SDS011;54319;52.038;4.640;2022-11-18T12:11:25;9.90;;;5.65;;
67456;SDS011;54319;52.038;4.640;2022-11-18T12:13:58;12.77;;;5.22;;
67456;SDS011;54319;52.038;4.640;2022-11-18T12:16:32;12.02;;;5.53;;
67456;SDS011;54319;52.038;4.640;2022-11-18T12:19:07;11.18;;;5.35;;
67456;SDS011;54319;52.038;4.640;2022-11-18T12:21:51;10.93;;;5.57;;
67456;SDS011;54319;52.038;4.640;2022-11-18T12:24:30;9.43;;;5.32;;
67456;SDS011;54319;52.038;4.640;2022-11-18T12:27:01;12.90;;;5.63;;
67456;SDS011;54319;52.038;4.640;2022-11-18T12:29:39;10.70;;;5.53;;
67456;SDS011;54319;52.038;4.640;2022-11-18T12:32:23;10.50;;;5.43;;
67456;SDS011;54319;52.038;4.640;2022-11-18T12:34:58;10.88;;;5.32;;
67456;SDS011;54319;52.038;4.640;2022-11-18T12:37:37;9.57;;;5.10;;
67456;SDS011;54319;52.038;4.640;2022-11-18T12:40:09;11.25;;;5.45;;
67456;SDS011;54319;52.038;4.640;2022-11-18T12:42:39;8.88;;;5.47;;
67456;SDS011;54319;52.038;4.640;2022-11-18T12:48:28;14.40;;;6.15;;
67456;SDS011;54319;52.038;4.640;2022-11-18T12:51:01;11.13;;;6.30;;
67456;SDS011;54319;52.038;4.640;2022-11-18T12:53:48;11.80;;;5.95;;
67456;SDS011;54319;52.038;4.640;2022-11-18T12:56:19;10.52;;;6.28;;
67456;SDS011;54319;52.038;4.640;2022-11-18T12:58:48;10.13;;;6.07;;
67456;SDS011;54319;52.038;4.640;2022-11-18T13:01:21;9.90;;;5.68;;
67456;SDS011;54319;52.038;4.640;2022-11-18T13:03:49;9.63;;;6.30;;
67456;SDS011;54319;52.038;4.640;2022-11-18T13:06:20;16.45;;;6.72;;
67456;SDS011;54319;52.038;4.640;2022-11-18T13:08:50;16.83;;;6.78;;
67456;SDS011;54319;52.038;4.640;2022-11-18T13:11:20;11.30;;;7.05;;
67456;SDS011;54319;52.038;4.640;2022-11-18T13:14:14;10.45;;;6.65;;
67456;SDS011;54319;52.038;4.640;2022-11-18T13:17:02;16.35;;;6.88;;
67456;SDS011;54319;52.038;4.640;2022-11-18T13:22:28;10.77;;;6.93;;
67456;SDS011;54319;52.038;4.640;2022-11-18T13:23:45;12.32;;;6.40;;
67456;SDS011;54319;52.038;4.640;2022-11-18T13:26:22;10.82;;;6.68;;
67456;SDS011;54319;52.038;4.640;2022-11-18T13:29:02;17.88;;;7.35;;
67456;SDS011;54319;52.038;4.640;2022-11-18T13:31:59;14.32;;;7.25;;
67456;SDS011;54319;52.038;4.640;2022-11-18T13:34:39;15.35;;;6.85;;
67456;SDS011;54319;52.038;4.640;2022-11-18T13:37:23;13.73;;;7.15;;
67456;SDS011;54319;52.038;4.640;2022-11-18T13:39:53;18.77;;;7.00;;
67456;SDS011;54319;52.038;4.640;2022-11-18T13:42:23;13.00;;;7.15;;
67456;SDS011;54319;52.038;4.640;2022-11-18T13:44:55;12.38;;;6.38;;
67456;SDS011;54319;52.038;4.640;2022-11-18T13:47:27;10.27;;;6.60;;
67456;SDS011;54319;52.038;4.640;2022-11-18T13:50:03;13.55;;;6.53;;
67456;SDS011;54319;52.038;4.640;2022-11-18T13:52:43;10.07;;;6.07;;
67456;SDS011;54319;52.038;4.640;2022-11-18T13:55:27;11.15;;;6.25;;
67456;SDS011;54319;52.038;4.640;2022-11-18T13:57:57;8.80;;;5.68;;
67456;SDS011;54319;52.038;4.640;2022-11-18T14:00:28;8.32;;;6.15;;
67456;SDS011;54319;52.038;4.640;2022-11-18T14:03:00;11.30;;;6.32;;
67456;SDS011;54319;52.038;4.640;2022-11-18T14:05:33;11.07;;;6.18;;
67456;SDS011;54319;52.038;4.640;2022-11-18T14:08:02;14.13;;;6.63;;
67456;SDS011;54319;52.038;4.640;2022-11-18T14:10:37;12.65;;;6.68;;
67456;SDS011;54319;52.038;4.640;2022-11-18T14:13:18;13.80;;;6.83;;
67456;SDS011;54319;52.038;4.640;2022-11-18T14:15:50;13.55;;;6.57;;
67456;SDS011;54319;52.038;4.640;2022-11-18T14:18:25;12.52;;;6.28;;
67456;SDS011;54319;52.038;4.640;2022-11-18T14:20:57;13.25;;;6.45;;
67456;SDS011;54319;52.038;4.640;2022-11-18T14:23:27;14.20;;;6.00;;
67456;SDS011;54319;52.038;4.640;2022-11-18T14:26:29;10.43;;;6.18;;
67456;SDS011;54319;52.038;4.640;2022-11-18T14:28:57;13.73;;;6.75;;
67456;SDS011;54319;52.038;4.640;2022-11-18T14:31:31;13.05;;;6.88;;
67456;SDS011;54319;52.038;4.640;2022-11-18T14:34:12;12.43;;;6.88;;
67456;SDS011;54319;52.038;4.640;2022-11-18T14:36:51;15.10;;;7.15;;
67456;SDS011;54319;52.038;4.640;2022-11-18T14:39:25;16.60;;;6.95;;
67456;SDS011;54319;52.038;4.640;2022-11-18T14:42:12;20.35;;;7.50;;
67456;SDS011;54319;52.038;4.640;2022-11-18T14:44:39;14.20;;;6.70;;
67456;SDS011;54319;52.038;4.640;2022-11-18T14:47:23;15.52;;;7.07;;
67456;SDS011;54319;52.038;4.640;2022-11-18T14:49:52;12.90;;;7.30;;
67456;SDS011;54319;52.038;4.640;2022-11-18T14:52:22;13.55;;;7.53;;
67456;SDS011;54319;52.038;4.640;2022-11-18T14:54:49;10.43;;;7.27;;
67456;SDS011;54319;52.038;4.640;2022-11-18T14:57:20;16.25;;;7.75;;
67456;SDS011;54319;52.038;4.640;2022-11-18T14:59:49;15.90;;;8.18;;
67456;SDS011;54319;52.038;4.640;2022-11-18T15:02:16;18.40;;;8.45;;
67456;SDS011;54319;52.038;4.640;2022-11-18T15:04:46;17.25;;;8.52;;
67456;SDS011;54319;52.038;4.640;2022-11-18T15:07:17;16.35;;;8.57;;
67456;SDS011;54319;52.038;4.640;2022-11-18T15:09:45;18.40;;;8.55;;
67456;SDS011;54319;52.038;4.640;2022-11-18T15:14:42;12.82;;;8.82;;
67456;SDS011;54319;52.038;4.640;2022-11-18T15:17:10;16.42;;;9.40;;
67456;SDS011;54319;52.038;4.640;2022-11-18T15:19:38;18.23;;;9.88;;
67456;SDS011;54319;52.038;4.640;2022-11-18T15:22:06;20.48;;;10.73;;
67456;SDS011;54319;52.038;4.640;2022-11-18T15:24:33;15.33;;;9.90;;
67456;SDS011;54319;52.038;4.640;2022-11-18T15:27:00;19.48;;;10.23;;
67456;SDS011;54319;52.038;4.640;2022-11-18T15:29:29;18.92;;;11.07;;
67456;SDS011;54319;52.038;4.640;2022-11-18T15:32:00;23.50;;;11.43;;
67456;SDS011;54319;52.038;4.640;2022-11-18T15:34:29;21.00;;;11.25;;
67456;SDS011;54319;52.038;4.640;2022-11-18T15:36:56;24.00;;;10.73;;
67456;SDS011;54319;52.038;4.640;2022-11-18T15:39:23;17.05;;;10.13;;